Time;durP1;ratioP1;P1;durP2;ratioP2;P2;SDS_P1;SDS_P2;PMS_P1;PMS_P2;Temp;Humidity;BMP_temperature;BMP_pressure;BME280_temperature;BME280_humidity;BME280_pressure;Samples;Min_cycle;Max_cycle;Signal;HPM_P1;HPM_P2
2022/11/25 00:00:49;;;;;;;14.85;3.83;;;7.50;99.90;;;;;;4998491;28;20053;-74
2022/11/25 00:03:15;;;;;;;16.20;4.85;;;7.50;99.90;;;;;;5031595;28;20052;-76
2022/11/25 00:05:41;;;;;;;15.15;4.53;;;7.50;99.90;;;;;;4998546;28;20491;-74
2022/11/25 00:08:07;;;;;;;21.50;4.78;;;7.50;99.90;;;;;;5015166;28;20056;-75
2022/11/25 00:10:33;;;;;;;17.98;4.80;;;7.50;99.90;;;;;;5014883;28;20037;-71
2022/11/25 00:12:59;;;;;;;13.95;4.25;;;7.50;99.90;;;;;;5031478;28;20107;-75
2022/11/25 00:15:24;;;;;;;18.10;4.13;;;7.90;99.90;;;;;;4998798;28;20509;-74
2022/11/25 00:17:51;;;;;;;17.10;4.75;;;7.80;99.90;;;;;;5014766;28;20045;-71
2022/11/25 00:20:19;;;;;;;16.35;4.40;;;7.60;99.90;;;;;;5031360;28;20073;-74
2022/11/25 00:22:45;;;;;;;21.60;4.70;;;7.60;99.90;;;;;;5030950;28;20096;-72
2022/11/25 00:25:10;;;;;;;13.75;3.95;;;7.60;99.90;;;;;;5031346;28;20433;-75
2022/11/25 00:27:36;;;;;;;16.67;4.00;;;7.60;99.90;;;;;;5014795;28;20038;-73
2022/11/25 00:30:02;;;;;;;13.55;3.67;;;7.60;99.90;;;;;;4982099;28;20057;-76
2022/11/25 00:32:28;;;;;;;19.23;4.53;;;7.70;99.90;;;;;;5031262;28;20049;-74
2022/11/25 00:34:53;;;;;;;16.83;3.88;;;7.70;99.90;;;;;;5031127;28;20132;-72
2022/11/25 00:37:19;;;;;;;18.73;4.53;;;7.70;99.90;;;;;;5014803;28;20398;-75
2022/11/25 00:39:45;;;;;;;18.38;5.00;;;7.70;99.90;;;;;;5014487;28;20095;-72
2022/11/25 00:44:55;;;;;;;15.38;4.50;;;7.70;99.90;;;;;;5017191;28;20144;-73
2022/11/25 00:47:20;;;;;;;16.92;4.45;;;7.70;99.90;;;;;;5014705;28;20121;-74
2022/11/25 00:49:52;;;;;;;19.05;4.40;;;7.70;99.90;;;;;;5014526;28;20509;-75
2022/11/25 00:52:23;;;;;;;23.85;4.25;;;7.70;99.90;;;;;;5031015;28;20440;-73
2022/11/25 00:54:49;;;;;;;;;;;7.70;99.90;;;;;;5014933;28;20100;-74
2022/11/25 00:57:17;;;;;;;19.80;3.97;;;7.80;99.90;;;;;;5031190;28;20324;-74
2022/11/25 00:59:46;;;;;;;18.58;4.20;;;8.00;99.90;;;;;;5032827;28;20050;-74
2022/11/25 01:02:14;;;;;;;23.10;5.00;;;7.80;99.90;;;;;;5034407;28;20045;-74
2022/11/25 01:04:40;;;;;;;13.82;4.30;;;7.80;99.90;;;;;;5034461;28;20453;-75
2022/11/25 01:07:06;;;;;;;19.52;4.53;;;7.80;99.90;;;;;;5034117;28;20045;-74
2022/11/25 01:09:32;;;;;;;18.85;4.55;;;7.80;99.90;;;;;;5017998;28;20049;-76
2022/11/25 01:11:57;;;;;;;15.15;4.50;;;7.80;99.90;;;;;;5034376;28;20071;-74
2022/11/25 01:14:24;;;;;;;21.80;4.68;;;7.80;99.90;;;;;;5034522;28;20051;-71
2022/11/25 01:16:50;;;;;;;18.08;3.78;;;7.80;99.90;;;;;;5034244;28;20085;-75
2022/11/25 01:19:17;;;;;;;20.35;4.45;;;8.10;99.90;;;;;;5017837;28;20037;-74
2022/11/25 01:21:43;;;;;;;16.92;3.80;;;7.90;99.90;;;;;;5017336;28;20049;-77
2022/11/25 01:24:10;;;;;;;13.63;3.17;;;7.90;99.90;;;;;;5034223;28;20072;-75
2022/11/25 01:26:36;;;;;;;16.30;4.25;;;7.90;99.90;;;;;;5034203;28;20099;-75
2022/11/25 01:29:28;;;;;;;16.40;3.88;;;7.90;99.90;;;;;;5033719;28;20057;-74
2022/11/25 01:31:55;;;;;;;13.85;3.80;;;7.90;99.90;;;;;;5033631;28;20552;-70
2022/11/25 01:34:24;;;;;;;15.20;3.55;;;7.90;99.90;;;;;;5034123;28;20099;-74
2022/11/25 01:36:50;;;;;;;16.88;3.92;;;7.90;99.90;;;;;;5033854;28;20485;-75
2022/11/25 01:39:19;;;;;;;17.95;4.88;;;7.80;99.90;;;;;;5017632;28;20044;-73
2022/11/25 01:41:45;;;;;;;14.57;3.50;;;7.80;99.90;;;;;;5033715;28;20041;-78
2022/11/25 01:44:16;;;;;;;18.33;4.55;;;7.80;99.90;;;;;;5001285;28;20132;-75
2022/11/25 01:46:44;;;;;;;13.43;3.47;;;7.80;99.90;;;;;;5033956;28;20049;-74
2022/11/25 01:49:23;;;;;;;14.38;3.58;;;7.80;99.90;;;;;;5033584;28;20048;-74
2022/11/25 01:52:03;;;;;;;15.55;3.80;;;7.70;99.90;;;;;;5017153;28;20041;-75
2022/11/25 01:54:36;;;;;;;17.92;4.28;;;7.80;99.90;;;;;;5017386;28;20069;-75
2022/11/25 01:57:16;;;;;;;17.55;4.28;;;7.70;99.90;;;;;;5033536;28;20057;-78
2022/11/25 01:59:48;;;;;;;16.38;3.85;;;7.70;99.90;;;;;;5017083;28;20096;-75
2022/11/25 02:02:14;;;;;;;11.93;3.55;;;7.80;99.90;;;;;;5016922;28;20099;-77
2022/11/25 02:04:42;;;;;;;14.77;3.95;;;7.70;99.90;;;;;;5033168;28;20052;-75
2022/11/25 02:07:24;;;;;;;21.45;4.03;;;7.70;99.90;;;;;;5033247;28;20045;-73
2022/11/25 02:09:50;;;;;;;17.48;3.72;;;7.80;99.90;;;;;;5032926;28;20041;-77
2022/11/25 02:12:17;;;;;;;13.82;3.42;;;7.70;99.90;;;;;;5032368;28;20081;-79
2022/11/25 02:14:44;;;;;;;15.75;3.80;;;7.80;99.90;;;;;;5016704;28;20045;-77
2022/11/25 02:17:10;;;;;;;12.52;4.00;;;8.00;99.90;;;;;;5016700;28;20049;-75
2022/11/25 02:19:57;;;;;;;12.40;3.80;;;7.80;99.90;;;;;;5016817;28;20367;-73
2022/11/25 02:22:32;;;;;;;12.30;3.42;;;7.80;99.90;;;;;;5032662;28;20045;-77
2022/11/25 02:25:21;;;;;;;14.98;3.60;;;8.10;99.90;;;;;;5033031;28;20045;-75
2022/11/25 02:27:51;;;;;;;13.00;3.63;;;7.90;99.90;;;;;;5032888;28;20044;-74
2022/11/25 02:30:17;;;;;;;16.27;4.10;;;7.90;99.90;;;;;;5016247;28;20057;-73
2022/11/25 02:32:47;;;;;;;11.00;3.88;;;7.90;99.90;;;;;;5016397;28;20052;-72
2022/11/25 02:35:25;;;;;;;15.20;3.58;;;7.90;99.90;;;;;;5016159;28;20792;-76
2022/11/25 02:37:53;;;;;;;16.45;3.67;;;7.90;99.90;;;;;;5032918;28;20136;-74
2022/11/25 02:40:19;;;;;;;14.10;4.25;;;7.90;99.90;;;;;;5032806;28;20045;-73
2022/11/25 02:42:48;;;;;;;14.30;3.28;;;8.10;99.90;;;;;;5015951;28;20164;-73
2022/11/25 02:45:16;;;;;;;14.88;3.88;;;7.90;99.90;;;;;;5015993;28;20064;-75
2022/11/25 02:47:42;;;;;;;13.30;3.65;;;8.00;99.90;;;;;;5032652;28;20072;-76
2022/11/25 02:50:08;;;;;;;17.75;4.00;;;8.10;99.90;;;;;;5032338;28;20045;-80
2022/11/25 02:52:33;;;;;;;11.57;3.55;;;7.80;99.90;;;;;;5032364;28;20060;-72
2022/11/25 02:54:59;;;;;;;12.00;3.45;;;8.00;99.90;;;;;;5015889;28;20038;-74
2022/11/25 02:57:25;;;;;;;15.32;3.75;;;7.80;99.90;;;;;;5016126;28;20389;-75
2022/11/25 02:59:50;;;;;;;19.27;3.80;;;7.80;99.90;;;;;;4983524;28;20053;-76
2022/11/25 03:02:16;;;;;;;16.38;3.85;;;7.80;99.90;;;;;;5015557;28;20049;-74
2022/11/25 03:04:42;;;;;;;18.10;4.97;;;7.80;99.90;;;;;;5032314;28;20053;-78
2022/11/25 03:07:07;;;;;;;15.48;4.22;;;7.70;99.90;;;;;;4999523;28;20046;-73
2022/11/25 03:09:33;;;;;;;16.48;4.47;;;7.70;99.90;;;;;;5032317;28;20485;-76
2022/11/25 03:14:43;;;;;;;17.25;4.05;;;7.80;99.90;;;;;;5018284;28;20470;-75
2022/11/25 03:17:08;;;;;;;16.70;4.30;;;7.70;99.90;;;;;;5032062;28;20041;-75
2022/11/25 03:19:34;;;;;;;21.05;4.35;;;7.90;99.90;;;;;;5032054;28;20068;-73
2022/11/25 03:22:00;;;;;;;18.95;5.03;;;7.70;99.90;;;;;;5031879;28;20044;-76
2022/11/25 03:24:25;;;;;;;16.90;4.80;;;7.70;99.90;;;;;;5015552;28;20037;-74
2022/11/25 03:26:51;;;;;;;15.35;4.72;;;7.80;99.90;;;;;;5015689;28;20081;-75
2022/11/25 03:29:17;;;;;;;18.23;4.25;;;7.80;99.90;;;;;;4999159;28;20140;-75
2022/11/25 03:31:43;;;;;;;20.90;4.78;;;7.80;99.90;;;;;;5032176;28;20402;-79
2022/11/25 03:34:08;;;;;;;16.83;5.00;;;7.80;99.90;;;;;;5015559;28;20037;-75
2022/11/25 03:36:34;;;;;;;21.08;4.60;;;7.80;99.90;;;;;;5031762;28;20053;-75
2022/11/25 03:39:00;;;;;;;23.30;4.80;;;8.00;99.90;;;;;;5015683;28;20041;-75
2022/11/25 03:41:25;;;;;;;18.00;4.60;;;7.80;99.90;;;;;;5015257;28;20045;-76
2022/11/25 03:43:51;;;;;;;18.48;4.97;;;7.80;99.90;;;;;;5032476;28;20537;-76
2022/11/25 03:46:17;;;;;;;21.30;5.30;;;7.80;99.90;;;;;;5015529;28;20103;-74
2022/11/25 03:48:43;;;;;;;20.30;4.50;;;7.90;99.90;;;;;;4999136;28;20534;-77
2022/11/25 03:51:09;;;;;;;20.23;5.50;;;7.80;99.90;;;;;;5015108;28;20053;-77
2022/11/25 03:53:35;;;;;;;25.92;5.45;;;7.80;99.90;;;;;;5015469;28;20136;-75
2022/11/25 03:56:00;;;;;;;24.30;6.00;;;7.80;99.90;;;;;;5031867;28;20052;-76
2022/11/25 03:58:26;;;;;;;17.58;5.43;;;7.90;99.90;;;;;;5031633;28;20056;-78
2022/11/25 04:00:52;;;;;;;14.10;4.75;;;7.80;99.90;;;;;;5015482;28;20088;-74
2022/11/25 04:03:17;;;;;;;16.58;5.30;;;7.90;99.90;;;;;;5031669;28;20394;-75
2022/11/25 04:05:43;;;;;;;18.50;5.03;;;7.80;99.90;;;;;;5031725;28;20103;-74
2022/11/25 04:08:09;;;;;;;22.90;5.10;;;7.90;99.90;;;;;;5015341;28;20042;-76
2022/11/25 04:10:35;;;;;;;23.75;5.10;;;7.80;99.90;;;;;;4998930;28;20569;-75
2022/11/25 04:13:00;;;;;;;21.15;5.60;;;7.80;99.90;;;;;;5015365;28;20049;-75
2022/11/25 04:15:26;;;;;;;23.33;5.93;;;7.90;99.90;;;;;;4998919;28;20053;-75
2022/11/25 04:17:52;;;;;;;17.58;6.47;;;7.90;99.90;;;;;;5015339;28;20053;-76
2022/11/25 04:20:18;;;;;;;24.77;5.80;;;8.60;99.90;;;;;;5031388;28;20057;-74
2022/11/25 04:22:44;;;;;;;21.02;5.75;;;7.90;99.90;;;;;;5031464;28;20050;-74
2022/11/25 04:25:10;;;;;;;22.00;6.18;;;7.90;99.90;;;;;;5015090;28;20069;-83
2022/11/25 04:27:36;;;;;;;18.15;5.80;;;8.20;99.90;;;;;;5031670;28;20139;-76
2022/11/25 04:30:02;;;;;;;12.00;4.72;;;8.00;99.90;;;;;;4981953;28;20097;-75
2022/11/25 04:32:28;;;;;;;22.42;5.75;;;7.90;99.90;;;;;;5011841;28;20133;-75
2022/11/25 04:34:53;;;;;;;25.13;5.90;;;8.60;99.90;;;;;;5013992;28;20137;-74
2022/11/25 04:37:19;;;;;;;20.38;5.50;;;8.00;99.90;;;;;;5017367;28;20058;-76
2022/11/25 04:39:45;;;;;;;18.17;5.63;;;8.00;99.90;;;;;;4668944;28;10000524;-75
2022/11/25 04:44:55;;;;;;;21.42;5.43;;;8.00;99.90;;;;;;5032754;28;20449;-76
2022/11/25 04:47:20;;;;;;;21.08;5.60;;;8.00;99.90;;;;;;5016027;28;20419;-77
2022/11/25 04:49:46;;;;;;;18.38;5.85;;;8.00;99.90;;;;;;5032464;28;20107;-76
2022/11/25 04:52:12;;;;;;;23.25;6.07;;;8.10;99.90;;;;;;4999343;28;20053;-76
2022/11/25 04:54:37;;;;;;;14.55;4.93;;;8.20;99.90;;;;;;5015951;28;20397;-76
2022/11/25 04:57:03;;;;;;;23.13;5.60;;;8.10;99.90;;;;;;4996606;28;20076;-78
2022/11/25 04:59:41;;;;;;;18.60;5.60;;;8.10;99.90;;;;;;5022087;28;20041;-76
2022/11/25 05:02:12;;;;;;;18.83;5.38;;;8.10;99.90;;;;;;5029882;28;20045;-76
2022/11/25 05:04:37;;;;;;;18.27;6.07;;;8.30;99.90;;;;;;5031713;28;20041;-77
2022/11/25 05:07:03;;;;;;;22.90;6.60;;;8.10;99.90;;;;;;5015834;28;20079;-78
2022/11/25 05:09:29;;;;;;;19.85;6.20;;;8.10;99.90;;;;;;5015595;28;20050;-76
2022/11/25 05:11:55;;;;;;;18.90;5.60;;;8.10;99.90;;;;;;4999329;28;20057;-75
2022/11/25 05:14:22;;;;;;;19.80;5.30;;;8.10;99.90;;;;;;5032326;28;20095;-76
2022/11/25 05:16:48;;;;;;;26.10;6.32;;;8.10;99.90;;;;;;5031912;28;20056;-76
2022/11/25 05:19:14;;;;;;;23.63;6.20;;;8.10;99.90;;;;;;5015930;28;20049;-73
2022/11/25 05:21:40;;;;;;;23.88;6.47;;;8.10;99.90;;;;;;4983055;28;20041;-73
2022/11/25 05:24:05;;;;;;;28.15;7.07;;;8.10;99.90;;;;;;5031819;28;20041;-77
2022/11/25 05:26:31;;;;;;;21.05;6.03;;;8.10;99.90;;;;;;5031743;28;20172;-75
2022/11/25 05:28:57;;;;;;;23.63;6.70;;;8.10;99.90;;;;;;5015255;28;20091;-71
2022/11/25 05:31:23;;;;;;;25.33;6.20;;;8.30;99.90;;;;;;4991707;28;20614;-78
2022/11/25 05:33:48;;;;;;;21.65;6.32;;;8.20;99.90;;;;;;4981809;28;20390;-77
2022/11/25 05:36:14;;;;;;;19.98;6.05;;;8.20;99.90;;;;;;5019018;28;20045;-71
2022/11/25 05:38:40;;;;;;;24.33;6.07;;;8.10;99.90;;;;;;5017720;28;20052;-74
2022/11/25 05:41:07;;;;;;;19.15;5.40;;;8.10;99.90;;;;;;5017677;28;20132;-73
2022/11/25 05:43:33;;;;;;;19.80;6.45;;;8.10;99.90;;;;;;5033879;28;20139;-75
2022/11/25 05:46:02;;;;;;;16.58;5.65;;;8.30;99.90;;;;;;5033849;28;20046;-74
2022/11/25 05:48:28;;;;;;;21.35;6.30;;;8.10;99.90;;;;;;5033907;28;20175;-73
2022/11/25 05:50:54;;;;;;;16.83;6.00;;;8.10;99.90;;;;;;5034037;28;20132;-71
2022/11/25 05:53:19;;;;;;;22.67;5.68;;;8.10;99.90;;;;;;5001262;28;20041;-74
2022/11/25 05:55:55;;;;;;;20.20;6.05;;;8.40;99.90;;;;;;5017208;28;20172;-78
2022/11/25 05:58:21;;;;;;;18.25;5.93;;;8.10;99.90;;;;;;5017499;28;20092;-74
2022/11/25 06:00:46;;;;;;;20.58;6.30;;;8.10;99.90;;;;;;5033716;28;20080;-74
2022/11/25 06:03:12;;;;;;;19.67;5.70;;;8.10;99.90;;;;;;5000879;28;20113;-75
2022/11/25 06:05:40;;;;;;;24.40;6.15;;;8.10;99.90;;;;;;5033576;28;20041;-74
2022/11/25 06:08:09;;;;;;;22.23;6.40;;;8.10;99.90;;;;;;5033702;28;20124;-76
2022/11/25 06:10:39;;;;;;;22.48;6.72;;;8.10;99.90;;;;;;5016931;28;20375;-71
2022/11/25 06:13:05;;;;;;;27.52;7.40;;;8.10;99.90;;;;;;5033708;28;20049;-72
2022/11/25 06:15:31;;;;;;;24.80;7.00;;;8.20;99.90;;;;;;5016577;28;20556;-74
2022/11/25 06:17:57;;;;;;;21.00;7.10;;;8.20;99.90;;;;;;5016978;28;20053;-74
2022/11/25 06:20:23;;;;;;;17.48;6.95;;;8.20;99.90;;;;;;5033236;28;20053;-77
2022/11/25 06:22:49;;;;;;;27.05;7.40;;;8.20;99.90;;;;;;5016580;28;20496;-74
2022/11/25 06:25:15;;;;;;;27.60;7.20;;;8.20;99.90;;;;;;5033332;28;20096;-72
2022/11/25 06:27:40;;;;;;;20.95;6.95;;;8.20;99.90;;;;;;5032991;28;20045;-75
2022/11/25 06:30:07;;;;;;;20.77;7.20;;;8.30;99.90;;;;;;5032632;28;20084;-73
2022/11/25 06:32:33;;;;;;;22.55;7.05;;;8.30;99.90;;;;;;5016651;28;20076;-79
2022/11/25 06:34:58;;;;;;;17.33;6.28;;;8.30;99.90;;;;;;5016892;28;20490;-74
2022/11/25 06:37:24;;;;;;;22.00;6.70;;;8.30;99.90;;;;;;5000451;28;20081;-72
2022/11/25 06:39:49;;;;;;;20.70;7.25;;;8.50;99.90;;;;;;5032869;28;20496;-75
2022/11/25 06:42:15;;;;;;;21.45;7.35;;;8.30;99.90;;;;;;5016434;28;20487;-74
2022/11/25 06:44:41;;;;;;;20.20;7.63;;;8.50;99.90;;;;;;5016427;28;20061;-75
2022/11/25 06:47:06;;;;;;;18.10;5.97;;;8.50;99.90;;;;;;5032799;28;20053;-70
2022/11/25 06:49:32;;;;;;;19.80;7.53;;;8.40;99.90;;;;;;5016274;28;20054;-76
2022/11/25 06:51:58;;;;;;;21.02;7.30;;;8.40;99.90;;;;;;4999879;28;20139;-72
2022/11/25 06:54:24;;;;;;;25.63;7.65;;;8.40;99.90;;;;;;5016333;28;20068;-72
2022/11/25 06:56:52;;;;;;;28.60;8.32;;;8.40;99.90;;;;;;5031914;28;20566;-74
2022/11/25 06:59:21;;;;;;;26.02;8.60;;;8.40;99.90;;;;;;5016452;28;20045;-74
2022/11/25 07:01:47;;;;;;;19.70;6.90;;;8.40;99.90;;;;;;4999973;28;20037;-75
2022/11/25 07:04:13;;;;;;;25.88;8.13;;;8.40;99.90;;;;;;5016095;28;20107;-78
2022/11/25 07:06:39;;;;;;;30.08;7.82;;;8.70;99.90;;;;;;5032393;28;20493;-75
2022/11/25 07:09:04;;;;;;;29.35;9.50;;;9.20;99.90;;;;;;5032558;28;20049;-73
2022/11/25 07:11:36;;;;;;;29.88;9.52;;;8.50;99.90;;;;;;5032530;28;20486;-76
2022/11/25 07:14:05;;;;;;;28.17;9.23;;;8.50;99.90;;;;;;5032544;28;20478;-74
2022/11/25 07:16:31;;;;;;;26.48;8.80;;;8.50;99.90;;;;;;5016177;28;20050;-74
2022/11/25 07:19:00;;;;;;;26.52;9.70;;;8.50;99.90;;;;;;5015594;28;20048;-76
2022/11/25 07:21:29;;;;;;;24.92;8.63;;;8.60;99.90;;;;;;5015715;28;20041;-74
2022/11/25 07:23:56;;;;;;;26.65;8.80;;;8.50;99.90;;;;;;5031999;28;20068;-77
2022/11/25 07:26:28;;;;;;;23.33;8.65;;;8.60;99.90;;;;;;5015427;28;20158;-75
2022/11/25 07:28:57;;;;;;;22.42;8.73;;;8.60;99.90;;;;;;5031224;28;20380;-75
2022/11/25 07:31:31;;;;;;;29.67;8.15;;;8.60;99.90;;;;;;5031533;28;20065;-78
2022/11/25 07:34:03;;;;;;;25.15;8.73;;;8.60;99.90;;;;;;5032062;28;20127;-74
2022/11/25 07:36:30;;;;;;;24.00;8.63;;;8.60;99.90;;;;;;5015415;28;20107;-79
2022/11/25 07:38:58;;;;;;;24.73;8.25;;;8.60;99.90;;;;;;5031503;28;20046;-78
2022/11/25 07:41:25;;;;;;;23.70;8.10;;;8.70;99.90;;;;;;5031914;28;20096;-74
2022/11/25 07:43:56;;;;;;;23.38;8.00;;;8.70;99.90;;;;;;5031791;28;20520;-75
2022/11/25 07:46:27;;;;;;;;;;;8.70;99.90;;;;;;5032431;28;20057;-75
2022/11/25 07:48:55;;;;;;;21.33;7.28;;;8.70;99.90;;;;;;5015398;28;19982;-74
2022/11/25 07:51:22;;;;;;;16.38;7.65;;;8.70;99.90;;;;;;5032025;28;20486;-75
2022/11/25 07:53:50;;;;;;;20.85;7.80;;;8.80;99.90;;;;;;5015331;28;20084;-74
2022/11/25 07:56:16;;;;;;;20.70;7.00;;;8.80;99.90;;;;;;5015455;28;20119;-78
2022/11/25 07:58:42;;;;;;;20.48;6.43;;;8.90;99.90;;;;;;5031896;28;20100;-75
2022/11/25 08:01:10;;;;;;;17.98;6.43;;;8.90;99.90;;;;;;5031823;28;20055;-73
2022/11/25 08:03:38;;;;;;;21.63;6.75;;;8.90;99.90;;;;;;5031890;28;20045;-74
2022/11/25 08:06:09;;;;;;;14.90;6.00;;;8.90;99.90;;;;;;5015119;28;20143;-74
2022/11/25 08:08:35;;;;;;;;;;;9.00;99.90;;;;;;5016039;28;20049;-72
2022/11/25 08:11:12;;;;;;;20.00;5.60;;;9.10;99.90;;;;;;5019281;28;19968;-74
2022/11/25 08:13:38;;;;;;;11.60;5.15;;;9.10;99.90;;;;;;5035971;28;20049;-75
2022/11/25 08:16:04;;;;;;;14.77;5.60;;;9.10;99.90;;;;;;5035603;28;20054;-73
2022/11/25 08:18:30;;;;;;;16.58;5.57;;;9.10;99.90;;;;;;5035764;28;20053;-75
2022/11/25 08:21:04;;;;;;;15.23;5.43;;;9.10;99.90;;;;;;5035433;28;20367;-75
2022/11/25 08:23:32;;;;;;;15.20;5.50;;;9.20;99.90;;;;;;5035407;28;20046;-73
2022/11/25 08:26:05;;;;;;;20.10;5.85;;;9.20;99.90;;;;;;5018756;28;20047;-75
2022/11/25 08:28:31;;;;;;;12.50;5.50;;;9.30;99.90;;;;;;5035732;28;20056;-76
2022/11/25 08:31:05;;;;;;;13.13;5.45;;;9.20;99.90;;;;;;5018610;28;20413;-75
2022/11/25 08:33:31;;;;;;;14.80;5.50;;;9.20;99.90;;;;;;5018775;28;20053;-71
2022/11/25 08:35:57;;;;;;;19.73;6.45;;;9.20;99.90;;;;;;5035363;28;20103;-74
2022/11/25 08:38:23;;;;;;;15.82;5.53;;;9.20;99.90;;;;;;5035388;28;20045;-78
2022/11/25 08:40:49;;;;;;;15.38;5.07;;;9.20;99.90;;;;;;5035225;28;20132;-75
2022/11/25 08:43:15;;;;;;;16.88;5.13;;;9.20;99.90;;;;;;5018579;28;20048;-74
2022/11/25 08:45:40;;;;;;;24.38;6.28;;;9.30;99.90;;;;;;5018933;28;20049;-74
2022/11/25 08:48:06;;;;;;;15.95;5.47;;;9.30;99.90;;;;;;5002260;28;20041;-75
2022/11/25 08:50:33;;;;;;;13.75;4.80;;;9.40;99.90;;;;;;5018828;28;20490;-74
2022/11/25 08:52:59;;;;;;;14.48;5.00;;;9.40;99.90;;;;;;5018189;28;20549;-72
2022/11/25 08:55:26;;;;;;;18.13;4.68;;;9.40;99.90;;;;;;5002386;28;20049;-75
2022/11/25 08:57:53;;;;;;;14.18;4.82;;;9.40;99.90;;;;;;5034775;28;20494;-75
2022/11/25 09:00:19;;;;;;;17.02;5.40;;;9.50;99.90;;;;;;5035157;28;20048;-75
2022/11/25 09:02:45;;;;;;;15.40;5.30;;;9.50;99.90;;;;;;5018236;28;20478;-72
2022/11/25 09:05:14;;;;;;;9.73;4.30;;;9.50;99.90;;;;;;5001691;28;20053;-74
2022/11/25 09:07:40;;;;;;;11.57;5.45;;;9.60;99.90;;;;;;5034881;28;20052;-74
2022/11/25 09:10:11;;;;;;;14.65;5.30;;;9.60;99.90;;;;;;5034587;28;20132;-73
2022/11/25 09:12:37;;;;;;;12.35;4.93;;;9.70;99.90;;;;;;5034849;28;20466;-75
2022/11/25 09:15:04;;;;;;;15.80;5.60;;;9.80;99.90;;;;;;5035586;28;20099;-77
2022/11/25 09:17:30;;;;;;;9.50;3.45;;;9.80;99.90;;;;;;5034715;28;20045;-75
2022/11/25 09:19:56;;;;;;;8.75;4.07;;;9.80;99.90;;;;;;5017398;28;20056;-73
2022/11/25 09:22:22;;;;;;;12.45;4.43;;;9.90;99.90;;;;;;5017894;28;20041;-76
2022/11/25 09:24:47;;;;;;;14.30;4.95;;;10.20;99.90;;;;;;5018051;28;20050;-72
2022/11/25 09:27:13;;;;;;;14.63;5.03;;;10.00;99.90;;;;;;5034264;28;20067;-76
2022/11/25 09:29:39;;;;;;;17.80;5.30;;;10.10;99.90;;;;;;5018014;28;20132;-72
2022/11/25 09:32:05;;;;;;;7.40;3.65;;;10.20;99.90;;;;;;5017224;28;20120;-73
2022/11/25 09:34:31;;;;;;;14.30;4.60;;;10.30;99.90;;;;;;5017910;28;20482;-72
2022/11/25 09:36:56;;;;;;;12.88;4.05;;;10.30;99.90;;;;;;5017599;28;20053;-74
2022/11/25 09:39:28;;;;;;;15.65;4.80;;;10.20;99.90;;;;;;5034339;28;20136;-73
2022/11/25 09:48:46;;;;;;;12.38;5.18;;;10.20;99.90;;;;;;5020132;28;20155;-73
2022/11/25 09:51:37;;;;;;;14.38;5.32;;;10.20;99.90;;;;;;5033768;28;20400;-74
2022/11/25 09:54:19;;;;;;;11.98;5.22;;;10.20;99.90;;;;;;5033595;28;20398;-76
2022/11/25 09:56:53;;;;;;;12.10;4.88;;;10.30;99.90;;;;;;5033627;28;20053;-71
2022/11/25 09:59:22;;;;;;;9.70;4.50;;;10.30;99.90;;;;;;5033703;28;20099;-73
2022/11/25 10:02:14;;;;;;;12.00;4.63;;;10.30;99.90;;;;;;5033679;28;20079;-72
2022/11/25 10:04:55;;;;;;;13.45;5.25;;;10.30;99.90;;;;;;5033930;28;20045;-73
2022/11/25 10:07:32;;;;;;;14.82;5.53;;;10.40;99.90;;;;;;5017201;28;20084;-73
2022/11/25 10:10:02;;;;;;;13.90;5.05;;;10.40;99.90;;;;;;5017338;28;20107;-73
2022/11/25 10:12:31;;;;;;;10.23;5.07;;;10.40;99.90;;;;;;5017081;28;20482;-71
2022/11/25 10:15:05;;;;;;;13.82;5.20;;;10.50;99.90;;;;;;5017108;28;20049;-73
2022/11/25 10:17:52;;;;;;;11.52;4.85;;;10.50;99.90;;;;;;5033646;28;20053;-73
2022/11/25 10:20:21;;;;;;;13.20;5.10;;;10.60;99.90;;;;;;5033385;28;20394;-72
2022/11/25 10:22:50;;;;;;;11.40;4.50;;;10.60;99.90;;;;;;5033182;28;20056;-77
2022/11/25 10:25:20;;;;;;;14.23;5.03;;;10.70;99.90;;;;;;5032910;28;20137;-73
2022/11/25 10:27:59;;;;;;;12.70;5.10;;;10.80;99.90;;;;;;5033431;28;20049;-75
2022/11/25 10:30:32;;;;;;;12.43;5.43;;;10.90;99.90;;;;;;5016516;28;20046;-78
2022/11/25 10:33:17;;;;;;;12.10;4.88;;;10.90;99.90;;;;;;5015617;28;20054;-72
2022/11/25 10:36:01;;;;;;;13.43;5.50;;;10.90;99.90;;;;;;5033336;28;20064;-74
2022/11/25 10:38:33;;;;;;;9.77;4.32;;;11.00;99.90;;;;;;5032916;28;20049;-74
2022/11/25 10:41:01;;;;;;;11.63;6.93;;;11.10;99.90;;;;;;5033157;28;20076;-74
2022/11/25 10:43:27;;;;;;;12.05;5.35;;;11.10;99.90;;;;;;5032855;28;20045;-73
2022/11/25 10:46:26;;;;;;;10.65;4.60;;;11.10;99.90;;;;;;5016532;28;20504;-74
2022/11/25 10:49:12;;;;;;;13.88;5.85;;;11.20;99.90;;;;;;5033006;28;20089;-74
2022/11/25 10:51:48;;;;;;;11.93;5.97;;;11.20;99.90;;;;;;5016588;28;20379;-75
2022/11/25 10:54:23;;;;;;;15.07;6.60;;;11.30;99.90;;;;;;5032653;28;20056;-75
2022/11/25 10:57:01;;;;;;;16.75;5.90;;;11.30;99.90;;;;;;5032905;28;20375;-74
2022/11/25 10:59:34;;;;;;;12.85;6.03;;;11.30;99.90;;;;;;5016181;28;20060;-75
2022/11/25 11:02:20;;;;;;;18.95;7.80;;;11.30;99.90;;;;;;5032629;28;20056;-78
2022/11/25 11:05:06;;;;;;;17.15;8.40;;;11.40;99.90;;;;;;5016229;28;20057;-72
2022/11/25 11:07:38;;;;;;;12.07;6.63;;;11.60;99.90;;;;;;5032434;28;20132;-74
2022/11/25 11:10:13;;;;;;;20.67;8.65;;;11.60;99.90;;;;;;5016258;28;20049;-74
2022/11/25 11:12:49;;;;;;;19.52;8.63;;;11.70;99.90;;;;;;5032564;28;20053;-74
2022/11/25 11:15:21;;;;;;;16.20;6.75;;;11.70;99.90;;;;;;5032154;28;20132;-74
2022/11/25 11:17:47;;;;;;;11.20;5.55;;;11.70;99.90;;;;;;5016001;28;20056;-74
2022/11/25 11:20:42;;;;;;;18.10;5.78;;;11.60;99.90;;;;;;5016064;28;20064;-77
2022/11/25 11:23:11;;;;;;;13.07;5.65;;;11.60;99.90;;;;;;5028693;28;20053;-74
2022/11/25 11:25:39;;;;;;;14.65;4.80;;;11.80;99.90;;;;;;5032339;28;20132;-73
2022/11/25 11:28:35;;;;;;;10.73;4.65;;;12.10;99.90;;;;;;5030268;28;20129;-73
2022/11/25 11:31:16;;;;;;;11.57;4.28;;;12.50;99.90;;;;;;5024657;28;20124;-75
2022/11/25 11:33:57;;;;;;;11.93;4.22;;;12.50;99.90;;;;;;5030047;28;20053;-76
2022/11/25 11:36:46;;;;;;;9.80;3.40;;;12.60;99.90;;;;;;4682468;28;10000186;-76
2022/11/25 11:39:20;;;;;;;10.25;3.33;;;13.00;99.90;;;;;;5029823;28;20049;-76
2022/11/25 11:42:04;;;;;;;11.65;3.58;;;13.30;99.90;;;;;;5012826;28;20077;-76
2022/11/25 11:44:53;;;;;;;9.38;3.00;;;13.60;99.90;;;;;;5013011;28;20052;-77
2022/11/25 11:47:29;;;;;;;10.15;2.80;;;13.90;99.90;;;;;;5029647;28;20481;-75
2022/11/25 11:50:07;;;;;;;8.63;2.90;;;13.80;99.90;;;;;;5029810;28;20052;-74
2022/11/25 11:52:51;;;;;;;13.32;3.10;;;13.70;99.90;;;;;;5029263;28;20053;-74
2022/11/25 11:58:35;;;;;;;5.85;2.10;;;13.40;99.90;;;;;;5029488;28;20343;-74
2022/11/25 12:01:21;;;;;;;;;;;13.00;99.90;;;;;;5013708;28;20474;-75
2022/11/25 12:03:59;;;;;;;7.85;2.80;;;13.10;99.90;;;;;;5029232;28;19979;-74
2022/11/25 12:06:30;;;;;;;6.45;2.47;;;13.60;99.90;;;;;;5012989;28;20123;-75
2022/11/25 12:09:18;;;;;;;7.93;2.63;;;13.80;99.90;;;;;;5013209;28;20140;-75
2022/11/25 12:11:52;;;;;;;8.85;2.50;;;14.10;99.90;;;;;;5013111;28;20041;-76
2022/11/25 12:14:44;;;;;;;8.75;2.38;;;14.30;99.90;;;;;;5013039;28;20053;-75
2022/11/25 12:17:44;;;;;;;8.50;2.50;;;14.50;99.90;;;;;;5028966;28;20404;-75
2022/11/25 12:20:20;;;;;;;14.07;2.80;;;14.10;99.90;;;;;;5029350;28;20554;-77
2022/11/25 12:23:02;;;;;;;8.73;2.40;;;13.40;99.90;;;;;;5013050;28;20053;-75
2022/11/25 12:25:39;;;;;;;;;;;13.00;99.90;;;;;;5013401;28;20054;-76
2022/11/25 12:28:04;;;;;;;7.07;2.42;;;12.80;99.90;;;;;;5028976;28;19944;-74
2022/11/25 12:30:58;;;;;;;8.77;2.47;;;13.00;99.90;;;;;;5029007;28;20485;-74
2022/11/25 12:33:34;;;;;;;9.73;2.63;;;13.00;99.90;;;;;;4992051;28;20099;-78
2022/11/25 12:36:03;;;;;;;9.55;2.38;;;13.10;99.90;;;;;;5035136;28;20102;-75
2022/11/25 12:38:37;;;;;;;9.45;2.60;;;12.90;99.90;;;;;;5032484;28;20084;-74
2022/11/25 12:41:12;;;;;;;9.77;2.80;;;13.00;99.90;;;;;;5032267;28;20048;-76
2022/11/25 12:43:53;;;;;;;12.90;2.40;;;12.80;99.90;;;;;;5048858;28;20066;-75
2022/11/25 12:46:28;;;;;;;;;;;12.60;99.90;;;;;;5033049;28;20049;-76
2022/11/25 12:48:56;;;;;;;10.02;2.60;;;12.60;99.90;;;;;;5049235;28;19924;-77
2022/11/25 12:51:37;;;;;;;9.77;2.55;;;12.70;99.90;;;;;;5049093;28;20135;-79
2022/11/25 12:54:16;;;;;;;10.25;2.35;;;13.10;99.90;;;;;;5049094;28;20057;-75
2022/11/25 12:56:42;;;;;;;11.20;2.60;;;13.40;99.90;;;;;;5035791;28;20045;-75
2022/11/25 12:59:20;;;;;;;11.40;2.10;;;13.50;99.90;;;;;;5052763;28;20057;-75
2022/11/25 13:02:00;;;;;;;12.40;2.10;;;13.40;99.90;;;;;;5049140;28;20053;-76
2022/11/25 13:04:47;;;;;;;8.27;1.73;;;13.50;99.90;;;;;;5015252;28;20045;-74
2022/11/25 13:07:18;;;;;;;11.38;1.70;;;13.80;99.90;;;;;;5032345;28;20061;-75
2022/11/25 13:10:20;;;;;;;13.82;2.28;;;14.40;99.90;;;;;;5032133;28;20045;-77
2022/11/25 13:13:12;;;;;;;8.88;2.13;;;14.50;99.90;;;;;;5011633;28;20075;-75
2022/11/25 13:15:44;;;;;;;9.30;2.30;;;14.30;99.90;;;;;;5031977;28;20516;-75
2022/11/25 13:18:19;;;;;;;13.95;2.33;;;14.20;99.90;;;;;;5032470;28;20072;-75